Time;durP1;ratioP1;P1;durP2;ratioP2;P2;SDS_P1;SDS_P2;PMS_P1;PMS_P2;Temp;Humidity;BMP_temperature;BMP_pressure;BME280_temperature;BME280_humidity;BME280_pressure;Samples;Min_cycle;Max_cycle;Signal;HPM_P1;HPM_P2
2023/09/24 00:02:15;;;;;;;;;;;;;;;-140.72;100.00;53009.78;5071232;28;20015;-68
2023/09/24 00:04:41;;;;;;;;;;;;;;;-140.72;100.00;53007.75;5072331;28;20027;-69
2023/09/24 00:07:07;;;;;;;;;;;;;;;-140.72;100.00;53044.28;5069834;28;20617;-68
2023/09/24 00:09:32;;;;;;;;;;;;;;;-140.72;100.00;53015.88;5068624;28;19920;-69
2023/09/24 00:11:58;;;;;;;;;;;;;;;-140.72;100.00;53007.75;5066735;28;19928;-69
2023/09/24 00:14:26;;;;;;;;;;;;;;;-140.72;100.00;53040.22;5067704;28;20000;-69
2023/09/24 00:16:51;;;;;;;;;;;;;;;-140.72;100.00;52991.53;5072321;28;20366;-69
2023/09/24 00:19:16;;;;;;;;;;;;;;;-140.72;100.00;53019.94;5065518;28;19986;-69
2023/09/24 00:21:41;;;;;;;;;;;;;;;-140.72;100.00;53005.72;5070608;28;20065;-68
2023/09/24 00:24:07;;;;;;;;;;;;;;;-140.72;100.00;53007.75;5070703;28;20011;-68
2023/09/24 00:26:32;;;;;;;;;;;;;;;-140.72;100.00;52997.63;5069255;28;19921;-69
2023/09/24 00:28:57;;;;;;;;;;;;;;;-140.72;100.00;52995.59;5069860;28;19963;-68
2023/09/24 00:31:23;;;;;;;;;;;;;;;-140.72;100.00;52973.25;5067667;28;19934;-68
2023/09/24 00:33:51;;;;;;;;;;;;;;;-140.72;100.00;53003.69;5069292;28;19928;-68
2023/09/24 00:36:16;;;;;;;;;;;;;;;-140.72;100.00;53024.00;5071078;28;20329;-69
2023/09/24 00:38:41;;;;;;;;;;;;;;;-140.72;100.00;53036.16;5070183;28;20000;-69
2023/09/24 00:41:07;;;;;;;;;;;;;;;-140.72;100.00;53001.66;5067947;28;20401;-69
2023/09/24 00:43:34;;;;;;;;;;;;;;;-140.72;100.00;53028.06;5069974;28;19928;-69
2023/09/24 00:46:00;;;;;;;;;;;;;;;-140.72;100.00;52983.41;5067761;28;19921;-67
2023/09/24 00:48:28;;;;;;;;;;;;;;;-140.72;100.00;53005.72;5065776;28;19932;-68
2023/09/24 00:50:56;;;;;;;;;;;;;;;-140.72;100.00;53015.88;5069239;28;20019;-67
2023/09/24 00:53:22;;;;;;;;;;;;;;;-140.72;100.00;52999.66;5069356;28;19956;-67
2023/09/24 00:55:47;;;;;;;;;;;;;;;-140.72;100.00;53019.94;5069364;28;19978;-67
2023/09/24 00:58:13;;;;;;;;;;;;;;;-140.72;100.00;52997.63;5068584;28;20284;-68
2023/09/24 01:00:38;;;;;;;;;;;;;;;-140.72;100.00;53056.47;5064350;28;20279;-67
2023/09/24 01:03:04;;;;;;;;;;;;;;;-140.72;100.00;53009.78;5067559;28;19982;-68
2023/09/24 01:05:30;;;;;;;;;;;;;;;-140.72;100.00;53024.00;5069373;28;19928;-67
2023/09/24 01:07:55;;;;;;;;;;;;;;;-140.72;100.00;53024.00;5069930;28;19999;-68
2023/09/24 01:10:23;;;;;;;;;;;;;;;-140.72;100.00;53015.88;5070119;28;19963;-67
2023/09/24 01:12:59;;;;;;;;;;;;;;;-140.72;100.00;53007.75;5066949;28;20562;-67
2023/09/24 01:15:25;;;;;;;;;;;;;;;-140.72;100.00;53009.78;5067431;28;19932;-67
2023/09/24 01:17:52;;;;;;;;;;;;;;;-140.72;100.00;53003.69;5069543;28;19928;-67
2023/09/24 01:20:21;;;;;;;;;;;;;;;-140.72;100.00;53054.44;5069606;28;19921;-67
2023/09/24 01:22:46;;;;;;;;;;;;;;;-140.72;100.00;53052.41;5070665;28;20286;-67
2023/09/24 01:25:11;;;;;;;;;;;;;;;-140.72;100.00;53017.91;5069354;28;19942;-68
2023/09/24 01:27:37;;;;;;;;;;;;;;;-140.72;100.00;53013.84;5066080;28;19944;-67
2023/09/24 01:30:06;;;;;;;;;;;;;;;-140.72;100.00;53068.66;5066734;28;20007;-67
2023/09/24 01:32:31;;;;;;;;;;;;;;;-140.72;100.00;53019.94;5071601;28;20072;-67
2023/09/24 01:34:56;;;;;;;;;;;;;;;-140.72;100.00;53021.97;5065765;28;19978;-68
2023/09/24 01:37:22;;;;;;;;;;;;;;;-140.72;100.00;53050.38;5068463;28;20070;-68
2023/09/24 01:39:49;;;;;;;;;;;;;;;-140.72;100.00;53050.38;5066567;28;19920;-68
2023/09/24 01:42:15;;;;;;;;;;;;;;;-140.72;100.00;53017.91;5068358;28;19978;-68
2023/09/24 01:44:41;;;;;;;;;;;;;;;-140.72;100.00;53019.94;5067957;28;20406;-67
2023/09/24 01:47:07;;;;;;;;;;;;;;;-140.72;100.00;53007.75;5067863;28;19928;-68
2023/09/24 01:49:33;;;;;;;;;;;;;;;-140.72;100.00;53068.66;5061391;28;20488;-67
2023/09/24 01:51:58;;;;;;;;;;;;;;;-140.72;100.00;53044.28;5065657;28;19920;-67
2023/09/24 01:54:26;;;;;;;;;;;;;;;-140.72;100.00;53050.38;5066842;28;19920;-67
2023/09/24 01:56:54;;;;;;;;;;;;;;;-140.72;100.00;53026.03;5068489;28;19935;-67
2023/09/24 01:59:19;;;;;;;;;;;;;;;-140.72;100.00;53040.22;5068705;28;19943;-67
2023/09/24 02:01:45;;;;;;;;;;;;;;;-140.72;100.00;53072.69;5066197;28;19921;-68
2023/09/24 02:04:10;;;;;;;;;;;;;;;-140.72;100.00;53052.41;5065898;28;19928;-67
2023/09/24 02:06:35;;;;;;;;;;;;;;;-140.72;100.00;53068.66;5066020;28;20345;-67
2023/09/24 02:09:01;;;;;;;;;;;;;;;-140.72;100.00;53072.69;5062933;28;19936;-68
2023/09/24 02:11:27;;;;;;;;;;;;;;;-140.72;100.00;53019.94;5065768;28;19973;-67
2023/09/24 02:13:53;;;;;;;;;;;;;;;-140.72;100.00;53036.16;5064128;28;19921;-68
2023/09/24 02:16:18;;;;;;;;;;;;;;;-140.72;100.00;53052.41;5066178;28;19932;-68
2023/09/24 02:18:43;;;;;;;;;;;;;;;-140.72;100.00;53040.22;5067779;28;20015;-68
2023/09/24 02:21:15;;;;;;;;;;;;;;;-140.72;100.00;53019.94;5067846;28;19926;-68
2023/09/24 02:23:44;;;;;;;;;;;;;;;-140.72;100.00;53046.31;5066412;28;19928;-68
2023/09/24 02:26:09;;;;;;;;;;;;;;;-140.72;100.00;53019.94;5078012;28;19982;-68
2023/09/24 02:28:38;;;;;;;;;;;;;;;-140.72;100.00;53056.47;5065677;28;19933;-67
2023/09/24 02:31:06;;;;;;;;;;;;;;;-140.72;100.00;53015.88;5068140;28;20612;-67
2023/09/24 02:33:32;;;;;;;;;;;;;;;-140.72;100.00;53019.94;5065750;28;20227;-67
2023/09/24 02:35:57;;;;;;;;;;;;;;;-140.72;100.00;53076.75;5067954;28;19921;-67
2023/09/24 02:38:24;;;;;;;;;;;;;;;-140.72;100.00;53007.75;5070218;28;19920;-67
2023/09/24 02:40:49;;;;;;;;;;;;;;;-140.72;100.00;53036.16;5066338;28;19951;-68
2023/09/24 02:43:15;;;;;;;;;;;;;;;-140.72;100.00;53011.81;5063881;28;19928;-68
2023/09/24 02:45:40;;;;;;;;;;;;;;;-140.72;100.00;53040.22;5064001;28;19965;-68
2023/09/24 02:48:06;;;;;;;;;;;;;;;-140.72;100.00;53052.41;5066597;28;19948;-68
2023/09/24 02:50:31;;;;;;;;;;;;;;;-140.72;100.00;53026.03;5069879;28;19931;-68
2023/09/24 02:52:58;;;;;;;;;;;;;;;-140.72;100.00;53015.88;5065729;28;19925;-68
2023/09/24 02:55:25;;;;;;;;;;;;;;;-140.72;100.00;53015.88;5065094;28;19927;-68
2023/09/24 02:57:50;;;;;;;;;;;;;;;-140.72;100.00;53062.56;5064691;28;19932;-68
2023/09/24 03:00:18;;;;;;;;;;;;;;;-140.72;100.00;53034.16;5067807;28;19920;-68
2023/09/24 03:02:47;;;;;;;;;;;;;;;-140.72;100.00;53024.00;5062789;28;19975;-68
2023/09/24 03:05:19;;;;;;;;;;;;;;;-140.72;100.00;53028.06;5065231;28;19921;-68
2023/09/24 03:07:44;;;;;;;;;;;;;;;-140.72;100.00;53060.53;5066590;28;19920;-68
2023/09/24 03:10:10;;;;;;;;;;;;;;;-140.72;100.00;53040.22;5066893;28;20387;-68
2023/09/24 03:12:36;;;;;;;;;;;;;;;-140.72;100.00;53019.94;5066978;28;20301;-68
2023/09/24 03:15:02;;;;;;;;;;;;;;;-140.72;100.00;53048.34;5066671;28;19924;-68
2023/09/24 03:17:28;;;;;;;;;;;;;;;-140.72;100.00;53003.69;5064407;28;19921;-69
2023/09/24 03:19:53;;;;;;;;;;;;;;;-140.72;100.00;53040.22;5068584;28;19926;-68
2023/09/24 03:22:18;;;;;;;;;;;;;;;-140.72;100.00;53068.66;5070274;28;19928;-68
2023/09/24 03:24:44;;;;;;;;;;;;;;;-140.72;100.00;53032.13;5073130;28;19921;-68
2023/09/24 03:27:09;;;;;;;;;;;;;;;-140.72;100.00;53074.72;5071678;28;19981;-68
2023/09/24 03:29:34;;;;;;;;;;;;;;;-140.72;100.00;53070.69;5066450;28;19964;-68
2023/09/24 03:31:59;;;;;;;;;;;;;;;-140.72;100.00;52999.66;5071137;28;19924;-68
2023/09/24 03:34:25;;;;;;;;;;;;;;;-140.72;100.00;53040.22;5073730;28;19921;-68
2023/09/24 03:36:50;;;;;;;;;;;;;;;-140.72;100.00;53056.47;5072401;28;20378;-68
2023/09/24 03:39:15;;;;;;;;;;;;;;;-140.72;100.00;53056.47;5066278;28;19928;-68
2023/09/24 03:41:40;;;;;;;;;;;;;;;-140.72;100.00;53021.97;5070422;28;20027;-68
2023/09/24 03:44:05;;;;;;;;;;;;;;;-140.72;100.00;53028.06;5071230;28;20302;-68
2023/09/24 03:46:31;;;;;;;;;;;;;;;-140.72;100.00;53038.19;5072285;28;19927;-68
2023/09/24 03:48:56;;;;;;;;;;;;;;;-140.72;100.00;53046.31;5071499;28;19927;-68
2023/09/24 03:51:22;;;;;;;;;;;;;;;-140.72;100.00;53032.13;5070382;28;20283;-68
2023/09/24 03:53:47;;;;;;;;;;;;;;;-140.72;100.00;53017.91;5069133;28;20414;-68
2023/09/24 03:56:12;;;;;;;;;;;;;;;-140.72;100.00;53021.97;5065981;28;20389;-68
2023/09/24 03:58:37;;;;;;;;;;;;;;;-140.72;100.00;53046.31;5066589;28;19931;-68
2023/09/24 04:01:09;;;;;;;;;;;;;;;-140.72;100.00;53026.03;5068651;28;19921;-68
2023/09/24 04:03:35;;;;;;;;;;;;;;;-140.72;100.00;53040.22;5069373;28;19966;-68
2023/09/24 04:06:06;;;;;;;;;;;;;;;-140.72;100.00;53056.47;5067878;28;19924;-68
2023/09/24 04:08:31;;;;;;;;;;;;;;;-140.72;100.00;53042.25;5070747;28;19920;-70
2023/09/24 04:10:57;;;;;;;;;;;;;;;-140.72;100.00;53080.81;5064534;28;20330;-68
2023/09/24 04:13:22;;;;;;;;;;;;;;;-140.72;100.00;53040.22;5066599;28;19943;-68
2023/09/24 04:15:47;;;;;;;;;;;;;;;-140.72;100.00;53066.63;5067520;28;20286;-68
2023/09/24 04:18:13;;;;;;;;;;;;;;;-140.72;100.00;53021.97;5071136;28;20076;-68
2023/09/24 04:20:38;;;;;;;;;;;;;;;-140.72;100.00;53024.00;5066461;28;20004;-68
2023/09/24 04:23:04;;;;;;;;;;;;;;;-140.72;100.00;53036.16;5065769;28;20020;-68
2023/09/24 04:25:29;;;;;;;;;;;;;;;-140.72;100.00;53038.19;5068441;28;19936;-68
2023/09/24 04:27:54;;;;;;;;;;;;;;;-140.72;100.00;53052.41;5064840;28;20427;-68
2023/09/24 04:30:22;;;;;;;;;;;;;;;-140.72;100.00;53088.94;5067218;28;19929;-68
2023/09/24 04:32:51;;;;;;;;;;;;;;;-140.72;100.00;53056.47;5063731;28;19924;-68
2023/09/24 04:35:19;;;;;;;;;;;;;;;-140.72;100.00;53060.53;5069357;28;19924;-69
2023/09/24 04:37:44;;;;;;;;;;;;;;;-140.72;100.00;53048.34;5067641;28;19933;-69
2023/09/24 04:40:14;;;;;;;;;;;;;;;-140.72;100.00;53068.66;5066251;28;19924;-68
2023/09/24 04:42:41;;;;;;;;;;;;;;;-140.72;100.00;53054.44;5070806;28;19940;-68
2023/09/24 04:45:07;;;;;;;;;;;;;;;-140.72;100.00;53032.13;5067304;28;20422;-68
2023/09/24 04:47:32;;;;;;;;;;;;;;;-140.72;100.00;53070.69;5077824;28;19932;-67
2023/09/24 04:49:58;;;;;;;;;;;;;;;-140.72;100.00;53076.75;5069767;28;19920;-67
2023/09/24 04:52:23;;;;;;;;;;;;;;;-140.72;100.00;53042.25;5066932;28;19920;-68
2023/09/24 04:54:48;;;;;;;;;;;;;;;-140.72;100.00;53080.81;5069915;28;19928;-68
2023/09/24 04:57:14;;;;;;;;;;;;;;;-140.72;100.00;53003.69;5068517;28;19962;-67
2023/09/24 04:59:39;;;;;;;;;;;;;;;-140.72;100.00;53056.47;5068168;28;19920;-67
2023/09/24 05:02:05;;;;;;;;;;;;;;;-140.72;100.00;53030.09;5072533;28;19928;-67
2023/09/24 05:04:32;;;;;;;;;;;;;;;-140.72;100.00;53042.25;5070143;28;20398;-67
2023/09/24 05:06:57;;;;;;;;;;;;;;;-140.72;100.00;53042.25;5069396;28;20437;-67
2023/09/24 05:09:23;;;;;;;;;;;;;;;-140.72;100.00;53050.38;5069168;28;21453;-71
2023/09/24 05:11:49;;;;;;;;;;;;;;;-140.72;100.00;53066.63;5072165;28;19974;-71
2023/09/24 05:14:14;;;;;;;;;;;;;;;-140.72;100.00;53038.19;5069178;28;19928;-71
2023/09/24 05:16:39;;;;;;;;;;;;;;;-140.72;100.00;53064.59;5069888;28;19991;-71
2023/09/24 05:19:05;;;;;;;;;;;;;;;-140.72;100.00;53078.78;5069839;28;19928;-71
2023/09/24 05:21:30;;;;;;;;;;;;;;;-140.72;100.00;53028.06;5068227;28;19924;-73
2023/09/24 05:23:56;;;;;;;;;;;;;;;-140.72;100.00;53052.41;5063460;28;20445;-71
2023/09/24 05:26:21;;;;;;;;;;;;;;;-140.72;100.00;53060.53;5068452;28;20016;-71
2023/09/24 05:28:48;;;;;;;;;;;;;;;-140.72;100.00;53080.81;5069499;28;19928;-71
2023/09/24 05:31:16;;;;;;;;;;;;;;;-140.72;100.00;53056.47;5067728;28;19927;-74
2023/09/24 05:33:41;;;;;;;;;;;;;;;-140.72;100.00;53058.50;5070211;28;19924;-70
2023/09/24 05:36:08;;;;;;;;;;;;;;;-140.72;100.00;53036.16;5068862;28;19926;-70
2023/09/24 05:38:33;;;;;;;;;;;;;;;-140.72;100.00;53026.03;5071753;28;19993;-70
2023/09/24 05:40:59;;;;;;;;;;;;;;;-140.72;100.00;53060.53;5073648;28;20366;-70
2023/09/24 05:43:24;;;;;;;;;;;;;;;-140.72;100.00;53050.38;5068790;28;19920;-71
2023/09/24 05:45:50;;;;;;;;;;;;;;;-140.72;100.00;53072.69;5067183;28;19983;-71
2023/09/24 05:48:16;;;;;;;;;;;;;;;-140.72;100.00;53068.66;5070079;28;19929;-70
2023/09/24 05:50:41;;;;;;;;;;;;;;;-140.72;100.00;53062.56;5068134;28;19928;-72
2023/09/24 05:53:07;;;;;;;;;;;;;;;-140.72;100.00;53070.69;5066141;28;19928;-71
2023/09/24 05:55:33;;;;;;;;;;;;;;;-140.72;100.00;53058.50;5069405;28;19928;-71
2023/09/24 05:57:58;;;;;;;;;;;;;;;-140.72;100.00;53032.13;5068312;28;20290;-71
2023/09/24 06:00:24;;;;;;;;;;;;;;;-140.72;100.00;53030.09;5070705;28;20013;-71
2023/09/24 06:02:49;;;;;;;;;;;;;;;-140.72;100.00;53068.66;5069310;28;19920;-70
2023/09/24 06:05:15;;;;;;;;;;;;;;;-140.72;100.00;53034.16;5068690;28;19920;-70
2023/09/24 06:07:40;;;;;;;;;;;;;;;-140.72;100.00;53034.16;5072039;28;19932;-70
2023/09/24 06:10:06;;;;;;;;;;;;;;;-140.72;100.00;53040.22;5066851;28;19932;-71
2023/09/24 06:12:31;;;;;;;;;;;;;;;-140.72;100.00;53074.72;5067557;28;19966;-71
2023/09/24 06:14:57;;;;;;;;;;;;;;;-140.72;100.00;53019.94;5067336;28;19931;-71
2023/09/24 06:17:22;;;;;;;;;;;;;;;-140.72;100.00;53060.53;5070362;28;19927;-70
2023/09/24 06:19:47;;;;;;;;;;;;;;;-140.72;100.00;53088.94;5070509;28;19928;-70
2023/09/24 06:22:13;;;;;;;;;;;;;;;-140.72;100.00;53046.31;5072464;28;19929;-70
2023/09/24 06:24:38;;;;;;;;;;;;;;;-140.72;100.00;53060.53;5067624;28;19924;-70
2023/09/24 06:27:03;;;;;;;;;;;;;;;-140.72;100.00;53050.38;5071047;28;19920;-70
2023/09/24 06:29:29;;;;;;;;;;;;;;;-140.72;100.00;53019.94;5068384;28;20010;-72
2023/09/24 06:31:54;;;;;;;;;;;;;;;-140.72;100.00;53048.34;5066991;28;19981;-71
2023/09/24 06:34:20;;;;;;;;;;;;;;;-140.72;100.00;53034.16;5067452;28;19935;-70
2023/09/24 06:36:45;;;;;;;;;;;;;;;-140.72;100.00;53060.53;5085022;28;19974;-69
2023/09/24 06:39:13;;;;;;;;;;;;;;;-140.72;100.00;52989.50;5065721;28;20386;-70
2023/09/24 06:41:39;;;;;;;;;;;;;;;-140.72;100.00;53028.06;5069644;28;19924;-70
2023/09/24 06:44:04;;;;;;;;;;;;;;;-140.72;100.00;53064.59;5064730;28;19982;-70
2023/09/24 06:46:29;;;;;;;;;;;;;;;-140.72;100.00;53056.47;5065858;28;20248;-69
2023/09/24 06:48:55;;;;;;;;;;;;;;;-140.72;100.00;53015.88;5068121;28;20436;-77
2023/09/24 06:51:20;;;;;;;;;;;;;;;-140.72;100.00;53052.41;5066622;28;19932;-72
2023/09/24 06:53:45;;;;;;;;;;;;;;;-140.72;100.00;53044.28;5067587;28;19920;-68
2023/09/24 06:56:11;;;;;;;;;;;;;;;-140.72;100.00;53021.97;5067231;28;19924;-70
2023/09/24 06:58:36;;;;;;;;;;;;;;;-140.72;100.00;53040.22;5072905;28;19925;-68
2023/09/24 07:01:03;;;;;;;;;;;;;;;-140.72;100.00;52987.47;5072384;28;19925;-69
2023/09/24 07:03:29;;;;;;;;;;;;;;;-140.72;100.00;53028.06;5074287;28;20378;-68
2023/09/24 07:05:54;;;;;;;;;;;;;;;-140.72;100.00;53005.72;5068743;28;19927;-68
2023/09/24 07:08:20;;;;;;;;;;;;;;;-140.72;100.00;53015.88;5073947;28;19931;-68
2023/09/24 07:10:46;;;;;;;;;;;;;;;-140.72;100.00;53013.84;5072333;28;19927;-68
2023/09/24 07:13:11;;;;;;;;;;;;;;;-140.72;100.00;53019.94;5069122;28;19920;-69
2023/09/24 07:15:37;;;;;;;;;;;;;;;-140.72;100.00;53011.81;5070820;28;20366;-69
2023/09/24 07:18:03;;;;;;;;;;;;;;;-140.72;100.00;52985.44;5073189;28;20563;-69
2023/09/24 07:20:29;;;;;;;;;;;;;;;-140.72;100.00;53007.75;5072317;28;19932;-69
2023/09/24 07:22:54;;;;;;;;;;;;;;;-140.72;100.00;53007.75;5070557;28;19921;-69
2023/09/24 07:25:20;;;;;;;;;;;;;;;-140.72;100.00;52999.66;5073417;28;20306;-68
2023/09/24 07:27:45;;;;;;;;;;;;;;;-140.72;100.00;53003.69;5072792;28;19932;-68
2023/09/24 07:30:10;;;;;;;;;;;;;;;-140.72;100.00;53007.75;5071446;28;19921;-69
2023/09/24 07:32:37;;;;;;;;;;;;;;;-140.72;100.00;52977.31;5069854;28;19928;-68
2023/09/24 07:35:02;;;;;;;;;;;;;;;-140.72;100.00;52983.41;5071919;28;19924;-68
2023/09/24 07:37:27;;;;;;;;;;;;;;;-140.72;100.00;52987.47;5071118;28;20011;-69
2023/09/24 07:39:53;;;;;;;;;;;;;;;-140.72;100.00;52971.22;5072168;28;19940;-69
2023/09/24 07:42:18;;;;;;;;;;;;;;;-140.72;100.00;52995.59;5070557;28;19928;-69
2023/09/24 07:44:43;;;;;;;;;;;;;;;-140.72;100.00;52981.38;5070611;28;19985;-69
2023/09/24 07:47:08;;;;;;;;;;;;;;;-140.72;100.00;52957.03;5067392;28;19920;-68
2023/09/24 07:49:34;;;;;;;;;;;;;;;-140.72;100.00;52969.19;5071211;28;19920;-69
2023/09/24 07:51:59;;;;;;;;;;;;;;;-140.72;100.00;52971.22;5067986;28;19954;-69
2023/09/24 07:54:27;;;;;;;;;;;;;;;-140.72;100.00;52961.09;5085069;28;19970;-69
2023/09/24 07:56:53;;;;;;;;;;;;;;;-140.72;100.00;52979.34;5067699;28;19920;-69
2023/09/24 07:59:19;;;;;;;;;;;;;;;-140.72;100.00;52938.75;5072210;28;19921;-69
2023/09/24 08:01:44;;;;;;;;;;;;;;;-140.72;100.00;52955.00;5068566;28;19939;-68
2023/09/24 08:04:09;;;;;;;;;;;;;;;-140.72;100.00;52959.06;5071816;28;19928;-70
2023/09/24 08:06:35;;;;;;;;;;;;;;;-140.72;100.00;52959.06;5068691;28;20291;-69
2023/09/24 08:09:00;;;;;;;;;;;;;;;-140.72;100.00;52934.69;5074578;28;19924;-69
2023/09/24 08:11:25;;;;;;;;;;;;;;;-140.72;100.00;52940.78;5065744;28;19974;-70
2023/09/24 08:13:51;;;;;;;;;;;;;;;-140.72;100.00;52932.66;5070609;28;19920;-69
2023/09/24 08:16:16;;;;;;;;;;;;;;;-140.72;100.00;52906.28;5069860;28;20333;-70
2023/09/24 08:18:44;;;;;;;;;;;;;;;-140.72;100.00;52942.81;5068131;28;19920;-70
2023/09/24 08:21:09;;;;;;;;;;;;;;;-140.72;100.00;52924.56;5069008;28;20103;-71
2023/09/24 08:23:34;;;;;;;;;;;;;;;-140.72;100.00;52971.22;5077136;28;20083;-71
2023/09/24 08:26:00;;;;;;;;;;;;;;;-140.72;100.00;52908.31;5072544;28;19979;-72
2023/09/24 08:28:25;;;;;;;;;;;;;;;-140.72;100.00;52930.66;5071645;28;19948;-72
2023/09/24 08:30:51;;;;;;;;;;;;;;;-140.72;100.00;52930.66;5079039;28;19921;-76
2023/09/24 08:33:16;;;;;;;;;;;;;;;-140.72;100.00;52904.25;5069111;28;19925;-80
2023/09/24 08:35:41;;;;;;;;;;;;;;;-140.72;100.00;52918.47;5073596;28;19932;-71
2023/09/24 08:38:07;;;;;;;;;;;;;;;-140.72;100.00;52906.28;5069057;28;19920;-70
2023/09/24 08:40:32;;;;;;;;;;;;;;;-140.72;100.00;52888.03;5069583;28;20013;-70
2023/09/24 08:42:58;;;;;;;;;;;;;;;-140.72;100.00;52920.50;5079122;28;20410;-69
2023/09/24 08:45:26;;;;;;;;;;;;;;;-140.72;100.00;52914.41;5070290;28;19931;-70
2023/09/24 08:47:51;;;;;;;;;;;;;;;-140.72;100.00;52900.19;5064725;28;19928;-69
2023/09/24 08:50:17;;;;;;;;;;;;;;;-140.72;100.00;52888.03;5066322;28;20011;-70
2023/09/24 08:52:44;;;;;;;;;;;;;;;-140.72;100.00;52837.28;5061842;28;19936;-70
2023/09/24 08:55:10;;;;;;;;;;;;;;;-140.72;100.00;52865.69;5068808;28;19920;-70
2023/09/24 08:57:38;;;;;;;;;;;;;;;-140.72;100.00;52833.22;5065289;28;19920;-72
2023/09/24 09:00:06;;;;;;;;;;;;;;;-140.72;100.00;52821.06;5066868;28;19927;-71
2023/09/24 09:02:31;;;;;;;;;;;;;;;-140.72;100.00;52806.84;5065250;28;19926;-70
2023/09/24 09:04:56;;;;;;;;;;;;;;;-140.72;100.00;52796.72;5064717;28;19924;-70
2023/09/24 09:07:22;;;;;;;;;;;;;;;-140.72;100.00;52800.75;5068109;28;20578;-74
2023/09/24 09:09:54;;;;;;;;;;;;;;;-140.72;100.00;52786.56;5069298;28;19920;-73
2023/09/24 09:12:19;;;;;;;;;;;;;;;-140.72;100.00;52837.28;5068127;28;20117;-70
2023/09/24 09:14:45;;;;;;;;;;;;;;;-140.72;100.00;52835.25;5072229;28;20007;-70
2023/09/24 09:17:10;;;;;;;;;;;;;;;-140.72;100.00;52833.22;5064927;28;19920;-69
2023/09/24 09:19:56;;;;;;;;;;;;;;;-140.72;100.00;52814.97;5071901;28;20362;-69
2023/09/24 09:22:22;;;;;;;;;;;;;;;-140.72;100.00;52804.81;5072693;28;19920;-71
2023/09/24 09:24:49;;;;;;;;;;;;;;;-140.72;100.00;52790.63;5069667;28;20003;-69
2023/09/24 09:27:15;;;;;;;;;;;;;;;-140.72;100.00;52794.69;5068911;28;20298;-69
2023/09/24 09:29:40;;;;;;;;;;;;;;;-140.72;100.00;52792.66;5069759;28;20246;-69
2023/09/24 09:32:05;;;;;;;;;;;;;;;-140.72;100.00;52774.38;5067294;28;19921;-69
2023/09/24 09:34:31;;;;;;;;;;;;;;;-140.72;100.00;52760.19;5066581;28;19929;-69
2023/09/24 09:37:16;;;;;;;;;;;;;;;-140.72;100.00;52743.94;5067945;28;19925;-69
2023/09/24 09:39:42;;;;;;;;;;;;;;;-140.72;100.00;52733.78;5068434;28;20186;-70
2023/09/24 09:42:09;;;;;;;;;;;;;;;-140.72;100.00;52727.72;5066916;28;19924;-70
2023/09/24 09:44:36;;;;;;;;;;;;;;;-140.72;100.00;52727.72;5067756;28;20683;-70
2023/09/24 09:47:02;;;;;;;;;;;;;;;-140.72;100.00;52727.72;5070583;28;20366;-70
2023/09/24 09:49:31;;;;;;;;;;;;;;;-140.72;100.00;52731.75;5066036;28;19920;-70
2023/09/24 09:52:00;;;;;;;;;;;;;;;-140.72;100.00;52713.50;5071313;28;19920;-70
2023/09/24 09:54:29;;;;;;;;;;;;;;;-140.72;100.00;52713.50;5068830;28;19926;-70
2023/09/24 09:56:55;;;;;;;;;;;;;;;-140.72;100.00;52705.38;5067688;28;19974;-70
2023/09/24 09:59:20;;;;;;;;;;;;;;;-140.72;100.00;52687.13;5064773;28;19932;-71
2023/09/24 10:01:46;;;;;;;;;;;;;;;-140.72;100.00;52687.13;5066814;28;20347;-70
2023/09/24 10:04:11;;;;;;;;;;;;;;;-140.72;100.00;52731.75;5069740;28;19927;-70
2023/09/24 10:06:38;;;;;;;;;;;;;;;-140.72;100.00;52715.53;5065758;28;19959;-70
2023/09/24 10:09:22;;;;;;;;;;;;;;;-140.72;100.00;52723.66;5067617;28;19920;-69
2023/09/24 10:11:51;;;;;;;;;;;;;;;-140.72;100.00;52634.38;5067765;28;19932;-70
2023/09/24 10:14:29;;;;;;;;;;;;;;;-140.72;4.70;52703.34;5067026;28;19964;-70
2023/09/24 10:16:55;;;;;;;;;;;;;;;-140.72;0.00;52681.03;5068082;28;19921;-69
2023/09/24 10:19:20;;;;;;;;;;;;;;;-140.72;0.00;52634.38;5066306;28;19924;-70
2023/09/24 10:21:45;;;;;;;;;;;;;;;-140.72;0.00;52654.66;5079059;28;19920;-70
2023/09/24 10:24:13;;;;;;;;;;;;;;;-140.72;0.00;52662.78;5065884;28;19980;-70
2023/09/24 10:26:47;;;;;;;;;;;;;;;-140.72;0.00;52601.91;5060790;28;19970;-70
2023/09/24 10:29:12;;;;;;;;;;;;;;;-140.72;0.00;52581.59;5064576;28;19928;-70
2023/09/24 10:31:57;;;;;;;;;;;;;;;-140.72;0.00;52607.97;5069288;28;20325;-70
2023/09/24 10:34:22;;;;;;;;;;;;;;;-140.72;0.00;52601.91;5067303;28;20294;-70
2023/09/24 10:37:07;;;;;;;;;;;;;;;-140.72;0.00;52642.47;5067598;28;19928;-70
2023/09/24 10:39:32;;;;;;;;;;;;;;;-140.72;0.00;52593.78;5067553;28;19931;-70
2023/09/24 10:42:09;;;;;;;;;;;;;;;-140.72;0.00;52654.66;5065483;28;19920;-70
2023/09/24 10:44:35;;;;;;;;;;;;;;;-140.72;0.00;52530.88;5079333;28;19921;-70
2023/09/24 10:47:23;;;;;;;;;;;;;;;-140.72;0.00;52565.38;5075164;28;19929;-70
2023/09/24 10:49:49;;;;;;;;;;;;;;;-140.72;0.00;52496.38;5067298;28;19929;-70
2023/09/24 10:52:14;;;;;;;;;;;;;;;-140.72;0.00;52508.56;5069033;28;20019;-70
2023/09/24 10:54:40;;;;;;;;;;;;;;;-140.72;0.00;52506.53;5068746;28;20393;-70
2023/09/24 10:57:05;;;;;;;;;;;;;;;-140.72;0.00;52470.00;5068412;28;19935;-70
2023/09/24 10:59:31;;;;;;;;;;;;;;;-140.72;0.00;52492.31;5065593;28;19932;-70
2023/09/24 11:01:56;;;;;;;;;;;;;;;-140.72;0.00;52443.63;5067526;28;19920;-70
2023/09/24 11:04:25;;;;;;;;;;;;;;;-140.72;0.00;52431.44;5061544;28;20018;-70
2023/09/24 11:06:50;;;;;;;;;;;;;;;-140.72;0.00;52401.00;5068802;28;19978;-70
2023/09/24 11:09:17;;;;;;;;;;;;;;;-140.72;0.00;52370.56;5067852;28;20329;-70
2023/09/24 11:11:42;;;;;;;;;;;;;;;-140.72;0.00;52431.44;5070935;28;19920;-70
2023/09/24 11:14:13;;;;;;;;;;;;;;;-140.72;0.00;52443.63;5067348;28;19920;-70
2023/09/24 11:16:38;;;;;;;;;;;;;;;-140.72;0.00;52463.91;5065905;28;19993;-70
2023/09/24 11:19:03;;;;;;;;;;;;;;;-140.72;0.00;52411.16;5066261;28;19921;-70
2023/09/24 11:21:32;;;;;;;;;;;;;;;-140.72;0.00;52455.78;5066642;28;20379;-70
2023/09/24 11:23:57;;;;;;;;;;;;;;;-140.72;0.00;52455.78;5066053;28;19994;-70
2023/09/24 11:26:29;;;;;;;;;;;;;;;-140.72;0.00;52549.13;5066688;28;19920;-72
2023/09/24 11:28:57;;;;;;;;;;;;;;;-140.72;0.00;52514.63;5067734;28;20007;-70
2023/09/24 11:31:23;;;;;;;;;;;;;;;-140.72;0.00;52494.34;5068050;28;19924;-69
2023/09/24 11:33:55;;;;;;;;;;;;;;;-140.72;0.00;52370.56;5066209;28;19920;-70
2023/09/24 11:36:21;;;;;;;;;;;;;;;-140.72;0.00;52307.66;5067959;28;19932;-70
2023/09/24 11:38:46;;;;;;;;;;;;;;;-140.72;0.00;52287.38;5068005;28;19925;-70
2023/09/24 11:41:13;;;;;;;;;;;;;;;-140.72;0.00;52382.75;5069857;28;20406;-70
2023/09/24 11:43:39;;;;;;;;;;;;;;;-140.72;0.00;52394.91;5071733;28;19921;-70
2023/09/24 11:46:28;;;;;;;;;;;;;;;-140.72;0.00;52301.59;5069100;28;19921;-70
2023/09/24 11:48:55;;;;;;;;;;;;;;;-140.72;0.00;52321.88;5067494;28;19974;-70
2023/09/24 11:51:20;;;;;;;;;;;;;;;-140.72;0.00;52305.63;5070803;28;19931;-70
2023/09/24 11:53:46;;;;;;;;;;;;;;;-140.72;0.00;52338.09;5072161;28;19920;-70
2023/09/24 11:56:11;;;;;;;;;;;;;;;-140.72;0.00;52348.25;5069673;28;19929;-70
2023/09/24 11:58:37;;;;;;;;;;;;;;;-140.72;0.00;52313.75;5070786;28;20302;-70
2023/09/24 12:01:04;;;;;;;;;;;;;;;-140.72;0.00;52315.78;5071357;28;19921;-70
2023/09/24 12:03:29;;;;;;;;;;;;;;;-140.72;0.00;52338.09;5070559;28;19962;-70
2023/09/24 12:05:55;;;;;;;;;;;;;;;-140.72;0.00;52297.53;5068590;28;19971;-70
2023/09/24 12:08:20;;;;;;;;;;;;;;;-140.72;0.00;52305.63;5070787;28;19932;-70
2023/09/24 12:10:50;;;;;;;;;;;;;;;-140.72;0.00;52305.63;5069284;28;19936;-70
2023/09/24 12:13:17;;;;;;;;;;;;;;;-140.72;0.00;52281.28;5070511;28;19924;-70
2023/09/24 12:15:43;;;;;;;;;;;;;;;-140.72;0.00;52256.94;5067755;28;20014;-70
2023/09/24 12:18:08;;;;;;;;;;;;;;;-140.72;0.00;52232.59;5073780;28;20007;-70